METAR AND TAF INFORMATION
METAR FOR EHGR
ADDS - METARS form results

(0719 UTC 25 January 2022)
Data provider http://aviationweather.gov/metar/data/
 
METAR text: EHGR 250709Z AUTO 00000KT 3400 BR OVC015 01/00 Q1033 YLO
Conditions at: EHGR (GILZE-RIJEN RNLA, NL) observed 0709 UTC 25 January 2022
Temperature: 1.0°C (34°F)
Dewpoint: 0.0°C (32°F) [RH = 93%]
Pressure (altimeter): 30.50 inches Hg (1033.0 mb)
Winds: calm
Visibility: 2.11 miles (3.40 km)
Ceiling: 1500 feet AGL
Clouds: overcast cloud deck at 1500 feet AGL
Weather: BR  (mist)

METAR text: EHGR 250702Z AUTO VRB01KT 4800 BR OVC015 01/00 Q1033 GRN
Conditions at: EHGR (GILZE-RIJEN RNLA, NL) observed 0702 UTC 25 January 2022
Temperature: 1.0°C (34°F)
Dewpoint: 0.0°C (32°F) [RH = 93%]
Pressure (altimeter): 30.50 inches Hg (1033.0 mb)
Winds: variable direction winds at 1 MPH (1 knots; 0.5 m/s)
Visibility: 2.98 miles (4.80 km)
Ceiling: 1500 feet AGL
Clouds: overcast cloud deck at 1500 feet AGL
Weather: BR  (mist)

METAR text: EHGR 250655Z AUTO 00000KT 3300 BR OVC015 01/00 Q1033 YLO
Conditions at: EHGR (GILZE-RIJEN RNLA, NL) observed 0655 UTC 25 January 2022
Temperature: 1.0°C (34°F)
Dewpoint: 0.0°C (32°F) [RH = 93%]
Pressure (altimeter): 30.50 inches Hg (1033.0 mb)
Winds: calm
Visibility: 2.05 miles (3.30 km)
Ceiling: 1500 feet AGL
Clouds: overcast cloud deck at 1500 feet AGL
Weather: BR  (mist)

METAR text: EHGR 250625Z AUTO VRB01KT 2700 BR OVC016 01/00 Q1033 YLO
Conditions at: EHGR (GILZE-RIJEN RNLA, NL) observed 0625 UTC 25 January 2022
Temperature: 1.0°C (34°F)
Dewpoint: 0.0°C (32°F) [RH = 93%]
Pressure (altimeter): 30.50 inches Hg (1033.0 mb)
Winds: variable direction winds at 1 MPH (1 knots; 0.5 m/s)
Visibility: 1.68 miles (2.70 km)
Ceiling: 1600 feet AGL
Clouds: overcast cloud deck at 1600 feet AGL
Weather: BR  (mist)

Forecast for: EHGR (GILZE-RIJEN RNLA, NL)
Text: TAF EHGR 250512Z 2506/2518 VRB02KT 2500 BR OVC015
Forecast period: 0600 to 0800 UTC 25 January 2022
Forecast type: FROM: standard forecast or significant change
Winds: variable direction winds at 2 MPH (2 knots; 1.0 m/s)
Visibility: 1.55 miles (2.49 km)
Ceiling: 1500 feet AGL
Clouds: overcast cloud deck at 1500 feet AGL
Weather: BR  (mist)
Text: BECMG 2508/2511 6000 NSW OVC018
Forecast period: 0800 to 1800 UTC 25 January 2022
Forecast type: BECOMING: Conditions expected to become as follows by 1100 UTC 25 January 2022
Winds: variable direction winds at 2 MPH (2 knots; 1.0 m/s)
Visibility: 4 miles (6 km)
Ceiling: 1800 feet AGL
Clouds: overcast cloud deck at 1800 feet AGL
Weather: NSW  (no significant weather)

 AIRPORT MAP

 RUNWAY INFORMATION
Runway 02 Runway length 6549 ft Runway width 98 ft
Runway elevation 49 ft Runway displaced threshold 191 ft Runway heading 18
Runway 20 Runway length 6549 ft Runway width 98 ft
Runway elevation 40 ft Runway displaced threshold 192 ft Runway heading 198
Runway 10 Runway length 9118 ft Runway width 148 ft
Runway elevation 42 ft Runway displaced threshold 427 ft Runway heading 100
Runway 28 Runway length 9118 ft Runway width 148 ft
Runway elevation 38 ft Runway displaced threshold 331 ft Runway heading 280

 AIRPORT FREQUENCIES
Type ARR Name RAPCON WES Frequency 123.575 MHZ
Type GND Name GND Frequency 23.492 MHZ
Type TWR Name TWR Frequency 125.325 MHZ

 AIRPORT NEAR NAVIGATION AIDS
Type TACAN Name Gilze Rijen Frequency 116400 KHZ